Anlan, China

55°F / 13°C
Scattered Clouds
Humidity: 54%
Dew Point: 39°F / 4°C
Wind: East at 9 mph / 14 km/h
Pressure: 30.09 in / 1019 hPa (Steady)
Visibility: 6.2 miles / 10.0 kilometers
Clouds: Scattered Clouds (SCT) : 4000 ft / 1219 m
Yesterday's Maximum: 55°F / 13°C
Yesterday's Minimum: 52°F / 11°C approx.
Yesterday's Heating Degree Days: 11 approx.
UV: 4 out of 16
Sunrise:7:25 AM CST
Sunset:6:48 PM CST
Moon Rise:10:52 PM CST
Moon Set:10:01 AM CST
Moon Phase Waning Gibbous
NOAA Weather Radio
No local feed.
METAR ZUCK 230800Z 08004MPS 040V100 9999 SCT040 13/04 Q1019 NOSIG
As of: 4:00 PM CST on February 23, 2019
Observed at: Chongqing, China

View Station's History

Local Satellite

Current Satellite Forecast
Region Default Local
No Yes

View Full Screen WunderMap

Forecast

Current Satellite Forecast
Friday
. High: 57° F. / 13° C.

. High: 57° F. / 14° C.

Features

Weather Apps

WunderRadio

Weather Underground Apps
Check out our wide variety of mobile and setup applications.

Weather Underground Applications

Top of Page

© Copyright 2019
The Weather Company, LLC